Time;durP1;ratioP1;P1;durP2;ratioP2;P2;SDS_P1;SDS_P2;PMS_P1;PMS_P2;Temp;Humidity;BMP_temperature;BMP_pressure;BME280_temperature;BME280_humidity;BME280_pressure;Samples;Min_cycle;Max_cycle;Signal;HPM_P1;HPM_P2
2022/03/18 00:00:14;;;;;;;;;;;;;;;7.93;54.35;102739.06;6111628;23;6858;-76
2022/03/18 00:02:42;;;;;;;;;;;;;;;7.91;53.29;102738.91;6109609;23;6989;-76
2022/03/18 00:05:08;;;;;;;;;;;;;;;7.88;53.41;102743.72;6087628;23;7183;-76
2022/03/18 00:07:34;;;;;;;;;;;;;;;7.85;53.49;102747.63;6111334;23;6790;-76
2022/03/18 00:09:59;;;;;;;;;;;;;;;7.82;54.41;102742.22;6136705;23;6968;-76
2022/03/18 00:12:25;;;;;;;;;;;;;;;7.78;53.87;102746.13;6111713;23;8307;-76
2022/03/18 00:14:51;;;;;;;;;;;;;;;7.77;54.71;102752.00;6086115;23;7228;-76
2022/03/18 00:17:17;;;;;;;;;;;;;;;7.73;54.52;102748.25;6113064;23;6858;-76
2022/03/18 00:19:43;;;;;;;;;;;;;;;7.71;53.85;102746.28;6111507;23;7280;-76
2022/03/18 00:22:08;;;;;;;;;;;;;;;7.69;54.22;102750.34;6110277;23;6841;-76
2022/03/18 00:24:35;;;;;;;;;;;;;;;7.67;54.37;102747.63;6111699;23;6770;-76
2022/03/18 00:27:03;;;;;;;;;;;;;;;7.66;54.61;102738.19;6110734;23;6787;-76
2022/03/18 00:29:31;;;;;;;;;;;;;;;7.63;54.71;102741.34;6111794;23;6783;-76
2022/03/18 00:31:56;;;;;;;;;;;;;;;7.61;54.94;102747.94;6110700;23;6786;-76
2022/03/18 00:34:22;;;;;;;;;;;;;;;7.59;54.82;102744.34;6112422;23;6794;-76
2022/03/18 00:36:48;;;;;;;;;;;;;;;7.57;54.37;102752.59;6113057;23;6783;-76
2022/03/18 00:39:14;;;;;;;;;;;;;;;7.52;54.88;102747.03;6110840;23;6947;-76
2022/03/18 00:41:40;;;;;;;;;;;;;;;7.49;55.03;102745.09;6111002;23;6945;-76
2022/03/18 00:44:05;;;;;;;;;;;;;;;7.44;54.84;102753.94;6109271;23;7207;-76
2022/03/18 00:46:31;;;;;;;;;;;;;;;7.39;54.40;102756.78;6111578;23;6782;-76
2022/03/18 00:54:25;;;;;;;;;;;;;;;7.18;54.56;102767.56;6113372;23;7121;-76
2022/03/18 00:56:51;;;;;;;;;;;;;;;7.14;54.21;102762.91;6110179;23;6771;-76
2022/03/18 00:59:17;;;;;;;;;;;;;;;7.11;54.95;102767.72;6133165;23;6779;-76
2022/03/18 01:01:43;;;;;;;;;;;;;;;7.09;54.90;102765.00;6109379;23;6778;-76
2022/03/18 01:04:09;;;;;;;;;;;;;;;7.06;54.55;102761.25;6087380;23;6942;-76
2022/03/18 01:06:35;;;;;;;;;;;;;;;7.02;54.85;102762.56;6111785;23;6991;-76
2022/03/18 01:09:04;;;;;;;;;;;;;;;6.98;54.98;102765.59;6109852;23;6787;-76
2022/03/18 01:11:31;;;;;;;;;;;;;;;6.96;54.66;102769.63;6110780;23;6940;-76
2022/03/18 01:13:58;;;;;;;;;;;;;;;6.93;54.59;102771.84;6087235;23;7389;-76
2022/03/18 01:16:24;;;;;;;;;;;;;;;6.91;54.81;102770.81;6107624;23;7054;-76
2022/03/18 01:18:49;;;;;;;;;;;;;;;6.86;55.14;102764.34;6110465;23;6771;-76
2022/03/18 01:21:15;;;;;;;;;;;;;;;6.80;55.01;102773.16;6109275;23;6895;-76
2022/03/18 01:23:41;;;;;;;;;;;;;;;6.75;54.92;102776.00;6111972;23;6774;-76
2022/03/18 01:26:06;;;;;;;;;;;;;;;6.67;55.02;102777.78;6109925;23;6782;-76
2022/03/18 01:28:32;;;;;;;;;;;;;;;6.63;54.91;102781.66;6109812;23;6858;-76
2022/03/18 01:30:58;;;;;;;;;;;;;;;6.59;55.20;102783.72;6109334;23;6842;-76
2022/03/18 01:33:24;;;;;;;;;;;;;;;6.56;55.38;102775.75;6109868;23;6957;-76
2022/03/18 01:35:50;;;;;;;;;;;;;;;6.52;55.70;102770.34;6109954;23;6794;-76
2022/03/18 01:38:15;;;;;;;;;;;;;;;6.49;55.22;102767.50;6085695;23;6814;-76
2022/03/18 01:40:41;;;;;;;;;;;;;;;6.46;54.97;102774.81;6111985;23;6782;-76
2022/03/18 01:43:11;;;;;;;;;;;;;;;6.43;55.60;102774.50;6109756;23;6857;-76
2022/03/18 01:45:38;;;;;;;;;;;;;;;6.38;55.30;102784.22;6085478;23;6779;-76
2022/03/18 01:48:06;;;;;;;;;;;;;;;6.36;55.48;102784.78;6111007;23;6858;-76
2022/03/18 01:50:32;;;;;;;;;;;;;;;6.34;55.57;102786.28;6109899;23;6949;-76
2022/03/18 01:52:59;;;;;;;;;;;;;;;6.34;55.89;102791.38;6107556;23;6866;-76
2022/03/18 01:55:26;;;;;;;;;;;;;;;6.32;55.47;102793.75;6108834;23;7335;-76
2022/03/18 01:57:52;;;;;;;;;;;;;;;6.32;55.99;102805.63;6110095;23;6854;-76
2022/03/18 02:00:19;;;;;;;;;;;;;;;6.32;55.79;102803.06;6085202;23;6901;-76
2022/03/18 02:02:46;;;;;;;;;;;;;;;6.32;55.73;102803.06;6110739;23;6783;-76
2022/03/18 02:05:12;;;;;;;;;;;;;;;6.31;55.70;102797.06;6087150;23;6990;-76
2022/03/18 02:07:38;;;;;;;;;;;;;;;6.29;55.93;102790.03;6085186;23;6955;-76
2022/03/18 02:10:05;;;;;;;;;;;;;;;6.29;56.25;102795.13;6112591;23;6924;-76
2022/03/18 02:12:31;;;;;;;;;;;;;;;6.28;55.64;102806.03;6086297;23;7124;-76
2022/03/18 02:14:58;;;;;;;;;;;;;;;6.26;56.17;102813.53;6109923;23;7839;-76
2022/03/18 02:17:24;;;;;;;;;;;;;;;6.21;56.24;102820.69;6110379;23;6778;-76
2022/03/18 02:19:50;;;;;;;;;;;;;;;6.18;55.91;102828.00;6110805;23;6939;-76
2022/03/18 02:22:21;;;;;;;;;;;;;;;6.14;55.64;102823.31;6111446;23;6997;-76
2022/03/18 02:24:53;;;;;;;;;;;;;;;6.13;55.84;102835.88;6110898;23;6779;-76
2022/03/18 02:27:20;;;;;;;;;;;;;;;6.10;55.49;102833.94;6108047;23;6908;-76
2022/03/18 02:29:47;;;;;;;;;;;;;;;6.09;55.62;102839.78;6110324;23;6783;-76
2022/03/18 02:32:14;;;;;;;;;;;;;;;6.09;56.06;102840.66;6108055;23;7075;-76
2022/03/18 02:34:41;;;;;;;;;;;;;;;6.08;55.96;102843.03;6107806;23;7173;-76
2022/03/18 02:37:08;;;;;;;;;;;;;;;6.07;56.09;102841.22;6136208;23;6857;-76
2022/03/18 02:39:35;;;;;;;;;;;;;;;6.08;56.18;102841.41;6108408;23;6820;-76
2022/03/18 02:42:01;;;;;;;;;;;;;;;6.08;56.16;102843.03;6107970;23;6959;-76
2022/03/18 02:44:26;;;;;;;;;;;;;;;6.08;56.12;102848.13;6111514;23;6887;-76
2022/03/18 02:46:52;;;;;;;;;;;;;;;6.07;56.40;102843.78;6133896;23;7374;-76
2022/03/18 02:49:19;;;;;;;;;;;;;;;6.04;56.53;102841.84;6112757;23;6938;-76
2022/03/18 02:51:46;;;;;;;;;;;;;;;6.03;56.66;102845.09;6133293;23;7090;-76
2022/03/18 02:54:12;;;;;;;;;;;;;;;6.00;56.22;102851.50;6110686;23;7064;-76
2022/03/18 02:56:39;;;;;;;;;;;;;;;6.00;56.23;102852.38;6112602;23;6782;-76
2022/03/18 02:59:04;;;;;;;;;;;;;;;5.98;56.51;102857.31;6113186;23;6987;-76
2022/03/18 03:01:31;;;;;;;;;;;;;;;5.98;56.49;102857.31;6110921;23;6924;-76
2022/03/18 03:03:59;;;;;;;;;;;;;;;5.97;56.40;102852.94;6115776;23;7098;-75
2022/03/18 03:09:12;;;;;;;;;;;;;;;5.95;56.69;102848.47;6115296;23;6862;-76
2022/03/18 03:11:37;;;;;;;;;;;;;;;5.93;56.47;102855.94;6112188;23;6787;-76
2022/03/18 03:14:03;;;;;;;;;;;;;;;5.93;56.51;102863.56;6117059;23;7153;-76
2022/03/18 03:16:29;;;;;;;;;;;;;;;5.91;56.40;102862.50;6115198;23;7063;-76
2022/03/18 03:18:54;;;;;;;;;;;;;;;5.89;56.60;102863.06;6112793;23;6945;-76
2022/03/18 03:21:20;;;;;;;;;;;;;;;5.90;56.30;102868.34;6114154;23;6795;-76
2022/03/18 03:23:47;;;;;;;;;;;;;;;5.87;56.24;102865.44;6114951;23;6802;-76
2022/03/18 03:26:14;;;;;;;;;;;;;;;5.86;56.63;102865.31;6118334;23;6779;-76
2022/03/18 03:28:41;;;;;;;;;;;;;;;5.85;56.53;102869.47;6140387;23;8268;-76
2022/03/18 03:31:07;;;;;;;;;;;;;;;5.84;56.81;102868.59;6116855;23;6991;-76
2022/03/18 03:33:33;;;;;;;;;;;;;;;5.85;56.59;102864.38;6116952;23;6774;-76
2022/03/18 03:35:59;;;;;;;;;;;;;;;5.86;56.45;102865.31;6117321;23;6786;-75
2022/03/18 03:38:25;;;;;;;;;;;;;;;5.84;56.16;102863.50;6115861;23;6967;-75
2022/03/18 03:40:51;;;;;;;;;;;;;;;5.83;56.83;102865.88;6116562;23;6957;-75
2022/03/18 03:43:17;;;;;;;;;;;;;;;5.82;56.67;102866.63;6117114;23;6783;-75
2022/03/18 03:45:44;;;;;;;;;;;;;;;5.81;56.60;102872.44;6119398;23;6794;-75
2022/03/18 03:48:12;;;;;;;;;;;;;;;5.78;56.31;102873.00;6117390;23;6787;-75
2022/03/18 03:50:41;;;;;;;;;;;;;;;5.76;56.57;102882.13;6116966;23;7003;-75
2022/03/18 03:53:09;;;;;;;;;;;;;;;5.72;56.27;102886.72;6116491;23;6862;-75
2022/03/18 03:55:40;;;;;;;;;;;;;;;5.67;56.32;102888.78;6113861;23;6795;-75
2022/03/18 03:58:08;;;;;;;;;;;;;;;5.63;56.26;102890.09;6114527;23;7250;-75
2022/03/18 04:00:38;;;;;;;;;;;;;;;5.60;56.22;102894.84;6116042;23;7190;-75
2022/03/18 04:03:05;;;;;;;;;;;;;;;5.54;56.07;102897.59;6112636;23;6971;-75
2022/03/18 04:05:33;;;;;;;;;;;;;;;5.49;56.38;102902.94;6114255;23;6877;-75
2022/03/18 04:07:59;;;;;;;;;;;;;;;5.46;56.59;102903.53;6113023;23;6858;-75
2022/03/18 04:10:25;;;;;;;;;;;;;;;5.45;56.71;102900.81;6110316;23;7027;-75
2022/03/18 04:12:51;;;;;;;;;;;;;;;5.43;56.74;102898.09;6111453;23;6771;-75
2022/03/18 04:15:17;;;;;;;;;;;;;;;5.39;56.37;102893.41;6111630;23;7025;-75
2022/03/18 04:17:47;;;;;;;;;;;;;;;5.37;56.89;102898.31;6112024;23;6774;-75
2022/03/18 04:20:22;;;;;;;;;;;;;;;5.34;56.46;102900.53;6112880;23;6782;-75
2022/03/18 04:22:50;;;;;;;;;;;;;;;5.30;56.20;102898.38;6112567;23;7017;-75
2022/03/18 04:25:16;;;;;;;;;;;;;;;5.25;56.13;102900.41;6112794;23;6946;-75
2022/03/18 04:27:44;;;;;;;;;;;;;;;5.21;56.87;102913.53;6108815;23;7478;-75
2022/03/18 04:30:13;;;;;;;;;;;;;;;5.17;56.66;102911.41;6110020;23;6790;-75
2022/03/18 04:32:39;;;;;;;;;;;;;;;5.13;56.40;102917.78;6108490;23;6783;-74
2022/03/18 04:35:07;;;;;;;;;;;;;;;5.11;56.55;102920.91;6087358;23;7155;-74
2022/03/18 04:37:33;;;;;;;;;;;;;;;5.08;56.44;102928.19;6112071;23;6799;-74
2022/03/18 04:39:58;;;;;;;;;;;;;;;5.05;56.25;102932.91;6113812;23;7206;-75
2022/03/18 04:42:24;;;;;;;;;;;;;;;5.02;56.24;102933.47;6112528;23;6767;-74
2022/03/18 04:44:50;;;;;;;;;;;;;;;5.04;56.38;102936.19;6113443;23;6893;-74
2022/03/18 04:47:15;;;;;;;;;;;;;;;5.06;57.27;102940.72;6114168;23;6774;-74
2022/03/18 04:49:41;;;;;;;;;;;;;;;5.09;57.29;102930.88;6114458;23;7338;-75
2022/03/18 04:52:07;;;;;;;;;;;;;;;5.12;56.78;102923.63;6111318;23;6901;-74
2022/03/18 04:54:33;;;;;;;;;;;;;;;5.14;56.66;102931.38;6137495;23;6779;-75
2022/03/18 04:57:18;;;;;;;;;;;;;;;5.13;57.23;102938.13;6111907;23;7066;-75
2022/03/18 04:59:54;;;;;;;;;;;;;;;5.12;57.45;102932.88;6114067;23;6806;-75
2022/03/18 05:02:20;;;;;;;;;;;;;;;5.11;57.14;102939.56;6111396;23;8216;-75
2022/03/18 05:04:48;;;;;;;;;;;;;;;5.08;56.53;102935.81;6112042;23;6934;-75
2022/03/18 05:07:15;;;;;;;;;;;;;;;5.07;56.70;102937.44;6111368;23;6786;-75
2022/03/18 05:09:42;;;;;;;;;;;;;;;5.07;57.09;102944.16;6109420;23;7441;-75
2022/03/18 05:12:11;;;;;;;;;;;;;;;5.05;57.33;102954.16;6110455;23;6974;-75
2022/03/18 05:14:38;;;;;;;;;;;;;;;5.04;56.50;102960.00;6112016;23;6870;-74
2022/03/18 05:17:05;;;;;;;;;;;;;;;5.04;56.31;102967.63;6135894;23;6948;-75
2022/03/18 05:19:31;;;;;;;;;;;;;;;5.00;56.90;102966.38;6111650;23;7126;-75
2022/03/18 05:21:57;;;;;;;;;;;;;;;4.96;56.57;102971.81;6085900;23;6779;-75
2022/03/18 05:24:25;;;;;;;;;;;;;;;4.93;56.41;102968.94;6113270;23;6814;-75
2022/03/18 05:26:52;;;;;;;;;;;;;;;4.91;56.39;102979.66;6111517;23;6973;-75
2022/03/18 05:29:18;;;;;;;;;;;;;;;4.86;55.85;102987.69;6113187;23;7560;-75
2022/03/18 05:31:45;;;;;;;;;;;;;;;4.80;56.28;102989.53;6087055;23;6767;-75
2022/03/18 05:34:12;;;;;;;;;;;;;;;4.75;56.11;102992.28;6112792;23;7002;-75
2022/03/18 05:36:39;;;;;;;;;;;;;;;4.69;55.73;102990.88;6113547;23;6779;-75
2022/03/18 05:39:05;;;;;;;;;;;;;;;4.69;57.20;103008.66;6113340;23;6975;-75
2022/03/18 05:41:31;;;;;;;;;;;;;;;4.69;56.57;103006.13;6136612;23;6771;-75
2022/03/18 05:43:57;;;;;;;;;;;;;;;4.71;57.14;103011.34;6112694;23;6775;-75
2022/03/18 05:46:23;;;;;;;;;;;;;;;4.69;57.05;103013.75;6111202;23;6786;-74
2022/03/18 05:48:49;;;;;;;;;;;;;;;4.68;56.34;103023.72;6113416;23;7041;-74
2022/03/18 05:51:15;;;;;;;;;;;;;;;4.66;56.85;103027.72;6110671;23;7011;-74
2022/03/18 05:53:41;;;;;;;;;;;;;;;4.66;56.58;103032.81;6110369;23;6799;-74
2022/03/18 05:58:51;;;;;;;;;;;;;;;4.65;56.24;103036.97;6113358;23;6811;-74
2022/03/18 06:01:17;;;;;;;;;;;;;;;4.64;56.25;103034.28;6112769;23;6790;-74
2022/03/18 06:03:43;;;;;;;;;;;;;;;4.64;56.36;103035.16;6112596;23;7043;-74
2022/03/18 06:06:09;;;;;;;;;;;;;;;4.63;57.59;103046.06;6112166;23;6774;-74
2022/03/18 06:14:03;;;;;;;;;;;;;;;4.57;57.46;103061.50;6112852;23;6779;-75
2022/03/18 06:16:29;;;;;;;;;;;;;;;4.61;57.78;103060.22;6112706;23;6818;-75
2022/03/18 06:18:55;;;;;;;;;;;;;;;4.67;57.76;103055.81;6112821;23;6779;-75
2022/03/18 06:21:22;;;;;;;;;;;;;;;4.72;58.29;103059.81;6111665;23;6893;-75
2022/03/18 06:23:47;;;;;;;;;;;;;;;4.78;58.01;103059.59;6111791;23;6977;-75
2022/03/18 06:26:13;;;;;;;;;;;;;;;4.83;57.23;103052.50;6112687;23;7051;-75
2022/03/18 06:28:39;;;;;;;;;;;;;;;4.89;57.71;103062.47;6112064;23;6779;-75
2022/03/18 06:31:06;;;;;;;;;;;;;;;4.91;57.59;103061.91;6109707;23;6971;-75
2022/03/18 06:33:33;;;;;;;;;;;;;;;4.93;57.89;103059.56;6112584;23;6933;-75
2022/03/18 06:36:00;;;;;;;;;;;;;;;4.94;57.69;103058.81;6111610;23;7050;-75
2022/03/18 06:38:26;;;;;;;;;;;;;;;4.97;57.81;103061.72;6114045;23;7811;-75
2022/03/18 06:40:52;;;;;;;;;;;;;;;5.00;58.06;103062.97;6112137;23;6910;-75
2022/03/18 06:43:17;;;;;;;;;;;;;;;5.07;58.59;103063.63;6111939;23;7051;-75
2022/03/18 06:45:43;;;;;;;;;;;;;;;5.11;58.01;103064.16;6110754;23;6989;-75
2022/03/18 06:48:09;;;;;;;;;;;;;;;5.21;58.50;103070.28;6137797;23;6770;-75
2022/03/18 06:50:34;;;;;;;;;;;;;;;5.29;58.57;103079.69;6136081;23;6882;-75
2022/03/18 06:53:01;;;;;;;;;;;;;;;5.39;58.09;103074.00;6087958;23;8480;-75
2022/03/18 06:55:27;;;;;;;;;;;;;;;5.49;58.06;103075.91;6112243;23;6779;-75
2022/03/18 06:57:53;;;;;;;;;;;;;;;5.61;58.22;103082.41;6113214;23;6863;-75
2022/03/18 07:00:19;;;;;;;;;;;;;;;5.71;58.81;103084.31;6112051;23;6846;-75
2022/03/18 07:02:44;;;;;;;;;;;;;;;5.82;58.52;103086.41;6087687;23;7285;-75
2022/03/18 07:05:10;;;;;;;;;;;;;;;5.94;58.67;103080.84;6110944;23;6871;-75
2022/03/18 07:07:36;;;;;;;;;;;;;;;6.07;58.44;103083.13;6112446;23;6766;-75
2022/03/18 07:10:02;;;;;;;;;;;;;;;6.19;58.71;103081.94;6112363;23;6986;-75
2022/03/18 07:12:28;;;;;;;;;;;;;;;6.32;58.05;103085.81;6113108;23;6804;-75
2022/03/18 07:14:54;;;;;;;;;;;;;;;6.44;58.58;103083.69;6113031;23;6812;-75
2022/03/18 07:20:04;;;;;;;;;;;;;;;6.67;58.67;103088.72;6111469;23;6951;-75
2022/03/18 07:22:30;;;;;;;;;;;;;;;6.80;58.60;103079.06;6087825;23;6783;-76
2022/03/18 07:24:56;;;;;;;;;;;;;;;6.99;58.58;103073.38;6112982;23;6845;-75
2022/03/18 07:27:21;;;;;;;;;;;;;;;7.16;58.79;103067.50;6088376;23;6938;-75
2022/03/18 07:29:47;;;;;;;;;;;;;;;7.35;58.90;103064.31;6088470;23;6771;-75
2022/03/18 07:32:13;;;;;;;;;;;;;;;7.51;58.72;103074.44;6111544;23;7027;-75
2022/03/18 07:34:38;;;;;;;;;;;;;;;7.70;58.41;103076.34;6112695;23;6845;-75
2022/03/18 07:37:04;;;;;;;;;;;;;;;7.87;58.47;103084.09;6114693;23;7844;-75
2022/03/18 07:39:30;;;;;;;;;;;;;;;8.03;58.79;103083.13;6137836;23;7203;-75
2022/03/18 07:41:55;;;;;;;;;;;;;;;8.21;58.71;103071.28;6136424;23;6893;-75
2022/03/18 07:44:21;;;;;;;;;;;;;;;8.38;58.42;103075.50;6087531;23;6802;-75
2022/03/18 07:46:47;;;;;;;;;;;;;;;8.54;58.34;103077.09;6114307;23;6794;-75
2022/03/18 07:49:12;;;;;;;;;;;;;;;8.69;57.17;103078.63;6112440;23;6771;-75
2022/03/18 07:51:38;;;;;;;;;;;;;;;8.82;57.38;103075.59;6111593;23;6862;-75
2022/03/18 07:54:04;;;;;;;;;;;;;;;8.96;57.59;103076.94;6111638;23;6818;-75
2022/03/18 07:56:30;;;;;;;;;;;;;;;9.11;57.34;103081.75;6113933;23;6944;-75
2022/03/18 07:58:56;;;;;;;;;;;;;;;9.24;57.08;103071.06;6115095;23;6901;-75
2022/03/18 08:01:21;;;;;;;;;;;;;;;9.35;56.46;103067.88;6115013;23;6838;-75
2022/03/18 08:03:47;;;;;;;;;;;;;;;9.47;56.86;103070.69;6114246;23;6854;-75
2022/03/18 08:06:13;;;;;;;;;;;;;;;9.56;56.25;103070.66;6115733;23;6846;-75
2022/03/18 08:08:38;;;;;;;;;;;;;;;9.67;56.05;103072.56;6113966;23;6965;-75
2022/03/18 08:11:05;;;;;;;;;;;;;;;9.76;56.00;103079.31;6114450;23;6853;-75
2022/03/18 08:13:30;;;;;;;;;;;;;;;9.85;55.31;103086.22;6112134;23;6775;-75
2022/03/18 08:15:57;;;;;;;;;;;;;;;9.96;56.05;103089.78;6115847;23;6956;-75
2022/03/18 08:18:22;;;;;;;;;;;;;;;10.06;55.49;103082.94;6089088;23;7080;-75
2022/03/18 08:20:52;;;;;;;;;;;;;;;10.16;55.12;103084.72;6114169;23;6926;-75
2022/03/18 08:23:18;;;;;;;;;;;;;;;10.25;54.97;103089.03;6113380;23;8059;-75
2022/03/18 08:25:44;;;;;;;;;;;;;;;10.34;55.44;103094.13;6087853;23;6952;-75
2022/03/18 08:28:10;;;;;;;;;;;;;;;10.44;54.72;103095.00;6112412;23;6826;-75
2022/03/18 08:30:38;;;;;;;;;;;;;;;10.52;55.10;103102.63;6088452;23;6974;-75
2022/03/18 08:33:04;;;;;;;;;;;;;;;10.61;54.70;103099.97;6109916;23;8453;-75
2022/03/18 08:35:30;;;;;;;;;;;;;;;10.71;54.28;103106.88;6111991;23;6767;-75
2022/03/18 08:37:58;;;;;;;;;;;;;;;10.80;53.85;103105.13;6113770;23;8464;-75
2022/03/18 08:40:34;;;;;;;;;;;;;;;10.92;53.91;103115.63;6111261;23;6778;-75
2022/03/18 08:43:07;;;;;;;;;;;;;;;11.00;53.90;103120.50;6088290;23;6779;-75
2022/03/18 08:45:34;;;;;;;;;;;;;;;11.07;53.47;103123.78;6110750;23;6779;-75
2022/03/18 08:48:00;;;;;;;;;;;;;;;11.15;53.13;103137.28;6114962;23;6953;-75
2022/03/18 08:50:26;;;;;;;;;;;;;;;11.24;52.96;103139.78;6110093;23;6775;-75
2022/03/18 08:52:55;;;;;;;;;;;;;;;11.32;52.80;103140.47;6113268;23;6869;-75
2022/03/18 08:55:21;;;;;;;;;;;;;;;11.40;52.80;103139.50;6114133;23;6782;-75
2022/03/18 08:57:47;;;;;;;;;;;;;;;11.46;52.35;103145.16;6112521;23;6794;-75
2022/03/18 09:00:17;;;;;;;;;;;;;;;11.53;52.35;103147.50;6108645;23;7145;-75
2022/03/18 09:02:46;;;;;;;;;;;;;;;11.62;52.09;103157.66;6111860;23;6798;-75
2022/03/18 09:05:13;;;;;;;;;;;;;;;11.73;52.15;103155.13;6112846;23;6867;-75
2022/03/18 09:07:40;;;;;;;;;;;;;;;11.81;52.50;103156.72;6113481;23;6779;-75
2022/03/18 09:10:08;;;;;;;;;;;;;;;11.89;51.86;103163.44;6112323;23;7035;-75
2022/03/18 09:12:34;;;;;;;;;;;;;;;11.95;51.56;103165.63;6111780;23;6865;-75
2022/03/18 09:15:02;;;;;;;;;;;;;;;12.00;52.00;103164.38;6113157;23;6775;-76
2022/03/18 09:17:28;;;;;;;;;;;;;;;12.07;51.69;103164.16;6112446;23;6985;-76
2022/03/18 09:19:54;;;;;;;;;;;;;;;12.17;51.02;103170.09;6113056;23;6771;-76
2022/03/18 09:22:19;;;;;;;;;;;;;;;12.24;51.17;103162.13;6113536;23;6835;-76
2022/03/18 09:24:46;;;;;;;;;;;;;;;12.29;50.63;103167.66;6114438;23;7760;-75
2022/03/18 09:27:16;;;;;;;;;;;;;;;12.36;51.26;103173.47;6113758;23;6779;-75
2022/03/18 09:29:42;;;;;;;;;;;;;;;12.44;50.60;103170.63;6113136;23;6779;-75
2022/03/18 09:32:08;;;;;;;;;;;;;;;12.56;50.42;103168.19;6113299;23;6775;-75
2022/03/18 09:34:35;;;;;;;;;;;;;;;12.68;50.93;103169.22;6112641;23;6874;-75
2022/03/18 09:37:01;;;;;;;;;;;;;;;12.79;50.28;103180.44;6113516;23;6966;-75
2022/03/18 09:39:27;;;;;;;;;;;;;;;12.88;50.12;103176.03;6115154;23;7012;-75
2022/03/18 09:41:54;;;;;;;;;;;;;;;12.97;49.13;103180.16;6088238;23;6950;-75
2022/03/18 09:44:20;;;;;;;;;;;;;;;13.05;48.55;103179.13;6087756;23;6949;-75
2022/03/18 09:46:51;;;;;;;;;;;;;;;13.11;47.60;103178.72;6113934;23;6946;-75
2022/03/18 09:49:19;;;;;;;;;;;;;;;13.16;47.16;103183.47;6112919;23;7002;-75
2022/03/18 09:51:47;;;;;;;;;;;;;;;13.22;45.81;103185.66;6112632;23;7229;-75
2022/03/18 09:54:14;;;;;;;;;;;;;;;13.28;46.47;103190.41;6112490;23;6964;-75
2022/03/18 09:56:43;;;;;;;;;;;;;;;13.34;45.56;103185.75;6112575;23;6960;-75
2022/03/18 09:59:09;;;;;;;;;;;;;;;13.41;45.62;103189.72;6111628;23;6790;-75
2022/03/18 10:01:35;;;;;;;;;;;;;;;13.47;44.66;103200.53;6112641;23;7013;-75
2022/03/18 10:04:07;;;;;;;;;;;;;;;13.53;44.26;103195.88;6084709;23;6783;-76
2022/03/18 10:06:34;;;;;;;;;;;;;;;13.60;43.42;103192.13;6113046;23;8487;-76
2022/03/18 10:09:01;;;;;;;;;;;;;;;13.67;43.17;103189.28;6110202;23;6787;-76
2022/03/18 10:11:30;;;;;;;;;;;;;;;13.73;42.63;103192.34;6111465;23;6775;-76
2022/03/18 10:14:20;;;;;;;;;;;;;;;13.79;43.19;103196.16;6112319;23;7019;-76
2022/03/18 10:16:51;;;;;;;;;;;;;;;13.86;43.08;103198.47;6113290;23;7062;-76
2022/03/18 10:19:23;;;;;;;;;;;;;;;13.97;43.32;103200.22;6113458;23;7132;-76
2022/03/18 10:22:01;;;;;;;;;;;;;;;14.08;43.01;103193.31;6111026;23;6791;-76
2022/03/18 10:24:34;;;;;;;;;;;;;;;14.23;42.75;103193.63;6112118;23;6782;-76
2022/03/18 10:27:16;;;;;;;;;;;;;;;14.42;43.13;103184.72;6112392;23;7013;-74
2022/03/18 10:29:47;;;;;;;;;;;;;;;15.04;42.71;103179.03;6111836;23;6791;-75
2022/03/18 10:32:15;;;;;;;;;;;;;;;16.22;42.23;103182.28;6112201;23;7132;-75
2022/03/18 10:37:46;;;;;;;;;;;;;;;19.00;38.27;103174.56;6116842;23;6942;-75
2022/03/18 10:40:14;;;;;;;;;;;;;;;20.07;37.28;103163.94;6084229;23;6987;-75
2022/03/18 10:42:40;;;;;;;;;;;;;;;20.93;36.22;103153.53;6111787;23;7075;-75
2022/03/18 10:45:08;;;;;;;;;;;;;;;21.57;34.52;103149.56;6112082;23;7041;-75
2022/03/18 10:47:40;;;;;;;;;;;;;;;22.10;33.78;103161.50;6113744;23;8029;-75
2022/03/18 10:50:19;;;;;;;;;;;;;;;22.41;32.93;103152.41;6112373;23;6786;-75
2022/03/18 10:52:47;;;;;;;;;;;;;;;22.66;32.79;103158.66;6087722;23;6863;-75
2022/03/18 10:55:36;;;;;;;;;;;;;;;22.85;31.88;103165.56;6112643;23;7136;-75
2022/03/18 10:58:11;;;;;;;;;;;;;;;22.97;30.87;103166.06;6112875;23;7002;-75
2022/03/18 11:00:40;;;;;;;;;;;;;;;23.11;30.66;103163.09;6112044;23;6957;-75
2022/03/18 11:03:07;;;;;;;;;;;;;;;23.21;29.33;103169.59;6111831;23;7017;-75
2022/03/18 11:05:47;;;;;;;;;;;;;;;23.44;29.75;103160.91;6112800;23;6782;-75
2022/03/18 11:08:24;;;;;;;;;;;;;;;23.91;29.29;103160.03;6114812;23;6870;-75
2022/03/18 11:11:07;;;;;;;;;;;;;;;24.18;28.98;103154.03;6113668;23;6778;-75
2022/03/18 11:14:06;;;;;;;;;;;;;;;24.28;28.34;103149.97;6115051;23;6795;-75
2022/03/18 11:16:40;;;;;;;;;;;;;;;24.34;28.95;103152.81;6115225;23;7118;-75
2022/03/18 11:19:10;;;;;;;;;;;;;;;24.39;28.27;103152.97;6115327;23;8018;-75
2022/03/18 11:21:38;;;;;;;;;;;;;;;24.54;28.27;103163.09;6113865;23;6925;-75
2022/03/18 11:24:22;;;;;;;;;;;;;;;24.81;28.37;103167.50;6114203;23;7007;-75
2022/03/18 11:26:52;;;;;;;;;;;;;;;25.09;27.77;103153.50;6116686;23;6782;-75
2022/03/18 11:29:24;;;;;;;;;;;;;;;25.32;27.62;103155.97;6114835;23;6803;-75
2022/03/18 11:32:12;;;;;;;;;;;;;;;25.69;27.19;103153.56;6113992;23;8130;-75
2022/03/18 11:35:06;;;;;;;;;;;;;;;25.88;26.88;103151.44;6115751;23;6783;-75
2022/03/18 11:37:33;;;;;;;;;;;;;;;26.09;26.84;103147.63;6112505;23;6974;-75
2022/03/18 11:40:27;;;;;;;;;;;;;;;26.43;26.26;103146.78;6115690;23;6932;-75
2022/03/18 11:42:55;;;;;;;;;;;;;;;26.56;26.35;103142.72;6114215;23;7233;-75
2022/03/18 11:45:37;;;;;;;;;;;;;;;26.52;25.92;103139.97;6114315;23;6771;-75
2022/03/18 11:48:36;;;;;;;;;;;;;;;26.51;25.99;103140.84;6112109;23;7094;-75
2022/03/18 11:51:31;;;;;;;;;;;;;;;26.55;25.56;103133.06;6113373;23;6779;-75
2022/03/18 11:54:02;;;;;;;;;;;;;;;26.32;25.10;103132.47;6114130;23;6954;-75
2022/03/18 11:56:50;;;;;;;;;;;;;;;26.09;24.91;103132.75;6113915;23;7110;-75
2022/03/18 11:59:28;;;;;;;;;;;;;;;26.00;24.82;103128.13;6116287;23;6778;-75
2022/03/18 12:01:59;;;;;;;;;;;;;;;25.98;24.90;103128.94;6111705;23;6775;-75
2022/03/18 12:04:50;;;;;;;;;;;;;;;26.16;24.56;103126.78;6114137;23;6871;-75
2022/03/18 12:07:19;;;;;;;;;;;;;;;26.19;24.29;103121.66;6113178;23;6934;-75
2022/03/18 12:10:05;;;;;;;;;;;;;;;26.15;23.91;103114.50;6113829;23;6783;-75
2022/03/18 12:12:39;;;;;;;;;;;;;;;26.12;23.88;103116.16;6112807;23;6775;-76
2022/03/18 12:15:18;;;;;;;;;;;;;;;26.06;24.05;103107.28;6111785;23;6783;-75
2022/03/18 12:17:55;;;;;;;;;;;;;;;26.01;23.67;103110.63;6111616;23;6806;-75
2022/03/18 12:20:31;;;;;;;;;;;;;;;25.95;23.89;103110.47;6113096;23;6937;-75
2022/03/18 12:23:08;;;;;;;;;;;;;;;25.97;23.67;103107.03;6113780;23;6783;-75
2022/03/18 12:25:36;;;;;;;;;;;;;;;25.91;23.04;103105.13;6138133;23;6822;-75
2022/03/18 12:28:03;;;;;;;;;;;;;;;25.70;22.68;103104.56;6089311;23;7785;-75
2022/03/18 12:30:31;;;;;;;;;;;;;;;25.50;22.20;103094.41;6114998;23;8008;-75
2022/03/18 12:33:05;;;;;;;;;;;;;;;25.38;22.50;103101.00;6112007;23;6942;-75
2022/03/18 12:35:37;;;;;;;;;;;;;;;24.90;22.65;103103.94;6114286;23;6774;-75
2022/03/18 12:38:15;;;;;;;;;;;;;;;23.67;23.36;103105.94;6090300;23;7214;-75
2022/03/18 12:40:56;;;;;;;;;;;;;;;22.47;24.20;103100.38;6089773;23;7083;-75
2022/03/18 12:43:24;;;;;;;;;;;;;;;21.38;24.78;103100.88;6113355;23;6775;-75
2022/03/18 12:45:50;;;;;;;;;;;;;;;20.63;25.70;103101.66;6113997;23;6774;-75
2022/03/18 12:48:21;;;;;;;;;;;;;;;20.06;26.57;103103.16;6113883;23;6850;-75
2022/03/18 12:50:56;;;;;;;;;;;;;;;19.63;27.23;103098.28;6113314;23;6794;-74
2022/03/18 12:53:28;;;;;;;;;;;;;;;19.28;27.78;103099.03;6112787;23;6778;-74
2022/03/18 12:55:59;;;;;;;;;;;;;;;18.99;28.41;103100.00;6113449;23;7160;-74
2022/03/18 12:58:28;;;;;;;;;;;;;;;18.78;28.08;103092.75;6113717;23;6986;-74
2022/03/18 13:01:00;;;;;;;;;;;;;;;18.61;28.36;103097.00;6086788;23;6953;-74
2022/03/18 13:03:30;;;;;;;;;;;;;;;18.46;28.17;103092.72;6113396;23;6862;-74
2022/03/18 13:06:08;;;;;;;;;;;;;;;18.35;28.53;103088.59;6112973;23;6779;-74
2022/03/18 13:08:34;;;;;;;;;;;;;;;18.28;28.62;103082.13;6089085;23;6779;-74
2022/03/18 13:11:06;;;;;;;;;;;;;;;18.22;29.06;103091.25;6114469;23;6883;-74
2022/03/18 13:13:32;;;;;;;;;;;;;;;18.17;28.89;103084.13;6112877;23;6775;-74
2022/03/18 13:16:04;;;;;;;;;;;;;;;18.10;28.47;103079.34;6086154;23;6962;-74
2022/03/18 13:18:35;;;;;;;;;;;;;;;18.04;28.72;103081.56;6112748;23;6937;-74
2022/03/18 13:21:10;;;;;;;;;;;;;;;17.98;28.25;103081.19;6087892;23;6947;-75